createdAt,value
2019-05-03T00:03:12.346Z,7.00
2019-05-03T00:08:16.427Z,7.20
2019-05-03T00:13:21.903Z,8.20
2019-05-03T00:18:26.771Z,8.63
2019-05-03T00:23:32.451Z,7.90
2019-05-03T00:28:37.724Z,10.23
2019-05-03T00:33:43.975Z,10.73
2019-05-03T00:38:48.486Z,8.90
2019-05-03T00:43:53.035Z,11.53
2019-05-03T00:48:57.133Z,12.33
2019-05-03T00:54:02.063Z,10.63
2019-05-03T00:59:06.624Z,7.00
2019-05-03T01:04:11.820Z,7.90
2019-05-03T01:09:22.520Z,6.40
2019-05-03T01:14:27.924Z,6.63
2019-05-03T01:19:32.820Z,3.73
2019-05-03T01:24:36.899Z,4.57
2019-05-03T01:29:42.460Z,4.57
2019-05-03T01:34:46.855Z,4.27
2019-05-03T01:39:52.794Z,2.70
2019-05-03T01:44:57.120Z,2.50
2019-05-03T01:50:08.762Z,2.20
2019-05-03T01:55:15.763Z,1.73
2019-05-03T02:00:24.416Z,1.60
2019-05-03T02:05:51.933Z,3.53
2019-05-03T02:10:55.721Z,1.67
2019-05-03T02:15:59.819Z,1.40
2019-05-03T02:21:03.933Z,1.23
2019-05-03T02:26:08.101Z,2.30
2019-05-03T02:31:13.712Z,1.80
2019-05-03T02:36:18.717Z,2.60
2019-05-03T02:41:23.051Z,2.53
2019-05-03T02:46:41.992Z,1.87
2019-05-03T02:51:46.242Z,2.13
2019-05-03T02:56:50.930Z,2.73
2019-05-03T03:01:58.232Z,2.27
2019-05-03T03:07:05.496Z,4.17
2019-05-03T03:12:08.939Z,3.27
2019-05-03T03:17:14.880Z,2.70
2019-05-03T03:22:20.982Z,2.80
2019-05-03T03:27:26.988Z,3.00
2019-05-03T03:32:38.095Z,3.10
2019-05-03T03:37:40.669Z,3.33
2019-05-03T03:42:45.139Z,5.10
2019-05-03T03:47:51.940Z,3.47
2019-05-03T03:52:58.577Z,5.00
2019-05-03T03:58:03.009Z,4.67
2019-05-03T04:03:07.207Z,5.07
2019-05-03T04:08:12.353Z,5.47
2019-05-03T04:13:17.530Z,4.13
2019-05-03T04:18:46.589Z,4.80
2019-05-03T04:23:50.785Z,3.83
2019-05-03T04:28:59.660Z,3.73
2019-05-03T04:34:00.783Z,4.40
2019-05-03T04:39:05.582Z,2.93
2019-05-03T04:44:09.910Z,4.13
2019-05-03T04:49:15.145Z,3.53
2019-05-03T04:54:37.848Z,3.33
2019-05-03T04:59:44.990Z,3.37
2019-05-03T05:04:48.010Z,4.63
2019-05-03T05:09:52.348Z,3.40
2019-05-03T05:14:56.759Z,3.87
2019-05-03T05:20:10.864Z,5.90
2019-05-03T05:25:18.315Z,4.23
2019-05-03T05:30:25.218Z,4.10
2019-05-03T05:35:28.399Z,5.03
2019-05-03T05:40:32.516Z,3.60
2019-05-03T05:45:36.620Z,6.40
2019-05-03T05:50:44.899Z,3.37
2019-05-03T05:56:09.205Z,5.43
2019-05-03T06:01:18.210Z,2.93
2019-05-03T06:06:30.053Z,3.40
2019-05-03T06:11:57.778Z,3.43
2019-05-03T06:17:15.003Z,3.00
2019-05-03T06:22:30.120Z,2.60
2019-05-03T06:27:37.112Z,3.10
2019-05-03T06:32:41.631Z,4.33
2019-05-03T06:37:47.867Z,3.77
2019-05-03T06:42:54.903Z,2.70
2019-05-03T06:47:57.788Z,4.43
2019-05-03T06:53:07.290Z,3.00
2019-05-03T06:58:07.956Z,2.07
2019-05-03T07:03:25.059Z,2.53
2019-05-03T07:09:05.216Z,1.83
2019-05-03T07:14:09.863Z,2.23
2019-05-03T07:19:15.399Z,2.10
2019-05-03T07:24:19.760Z,2.00
2019-05-03T07:29:25.501Z,3.00
2019-05-03T07:34:29.784Z,2.30
2019-05-03T07:39:35.071Z,1.90
2019-05-03T07:44:39.364Z,2.50
2019-05-03T07:49:44.742Z,3.23
2019-05-03T07:54:48.979Z,2.20
2019-05-03T07:59:55.701Z,2.23
2019-05-03T08:05:00.025Z,2.60
2019-05-03T08:10:05.528Z,2.43
2019-05-03T08:15:11.468Z,2.97
2019-05-03T08:20:15.649Z,3.13
2019-05-03T08:25:20.265Z,5.07
2019-05-03T08:30:31.651Z,3.47
2019-05-03T08:35:38.641Z,4.17
2019-05-03T08:40:45.799Z,3.50
2019-05-03T08:45:50.890Z,3.70
2019-05-03T08:50:55.418Z,3.23
2019-05-03T08:55:59.669Z,2.40
2019-05-03T09:01:06.500Z,6.33
2019-05-03T09:06:15.481Z,3.30
2019-05-03T09:11:30.690Z,3.13
2019-05-03T09:16:29.983Z,3.23
2019-05-03T09:21:34.828Z,2.80
2019-05-03T09:26:39.684Z,2.83
2019-05-03T09:31:44.742Z,3.50
2019-05-03T09:36:49.322Z,2.20
2019-05-03T09:41:55.401Z,2.60
2019-05-03T09:46:59.304Z,2.50
2019-05-03T09:52:07.925Z,3.67
2019-05-03T09:57:10.588Z,4.50
2019-05-03T10:02:15.221Z,2.17
2019-05-03T10:07:19.703Z,2.27
2019-05-03T10:12:25.545Z,1.40
2019-05-03T10:17:48.225Z,1.70
2019-05-03T10:22:54.449Z,1.20
2019-05-03T10:27:58.452Z,2.40
2019-05-03T10:33:16.963Z,1.10
2019-05-03T10:38:21.672Z,1.53
2019-05-03T10:43:26.049Z,2.67
2019-05-03T10:48:30.222Z,2.50
2019-05-03T10:53:37.971Z,2.00
2019-05-03T10:58:45.317Z,1.53
2019-05-03T11:03:50.215Z,3.30
2019-05-03T11:08:54.687Z,2.20
2019-05-03T11:13:58.809Z,1.67
2019-05-03T11:19:02.993Z,6.83
2019-05-03T11:24:07.345Z,3.07
2019-05-03T11:29:17.971Z,1.53
2019-05-03T11:34:25.412Z,3.07
2019-05-03T11:39:34.442Z,1.57
2019-05-03T11:44:38.824Z,2.80
2019-05-03T11:49:45.198Z,1.20
2019-05-03T11:54:48.760Z,3.53
2019-05-03T11:59:54.833Z,3.43
2019-05-03T12:04:59.769Z,2.10
2019-05-03T12:10:13.581Z,2.80
2019-05-03T12:15:11.041Z,2.23
2019-05-03T12:20:18.061Z,1.57
2019-05-03T12:25:21.428Z,2.10
2019-05-03T12:30:27.894Z,2.17
2019-05-03T12:35:32.034Z,2.13
2019-05-03T12:40:36.216Z,1.30
2019-05-03T12:45:40.560Z,2.37
2019-05-03T12:50:46.445Z,2.63
2019-05-03T12:55:51.368Z,2.00
2019-05-03T13:01:17.122Z,1.93
2019-05-03T13:06:21.336Z,1.50
2019-05-03T13:11:25.997Z,2.20
2019-05-03T13:16:30.199Z,1.67
2019-05-03T13:21:35.842Z,2.40
2019-05-03T13:26:42.166Z,2.83
2019-05-03T13:32:01.259Z,2.60
2019-05-03T13:36:55.245Z,1.30
2019-05-03T13:41:59.685Z,3.17
2019-05-03T13:47:04.533Z,1.50
2019-05-03T13:52:10.287Z,1.97
2019-05-03T13:57:15.606Z,3.97
2019-05-03T14:02:21.021Z,3.20
2019-05-03T14:07:25.134Z,2.67
2019-05-03T14:12:29.265Z,2.83
2019-05-03T14:17:33.353Z,1.87
2019-05-03T14:22:39.770Z,1.67
2019-05-03T14:27:45.596Z,3.50
2019-05-03T14:32:50.182Z,3.07
2019-05-03T14:37:55.060Z,2.43
2019-05-03T14:42:59.293Z,3.00
2019-05-03T14:48:06.150Z,4.93
2019-05-03T14:53:10.972Z,2.50
2019-05-03T14:58:35.163Z,2.00
2019-05-03T15:03:39.101Z,1.40
2019-05-03T15:08:44.838Z,2.97
2019-05-03T15:13:49.206Z,1.60
2019-05-03T15:18:54.800Z,3.83
2019-05-03T15:23:59.318Z,2.37
2019-05-03T15:29:04.832Z,1.70
2019-05-03T15:34:10.578Z,2.73
2019-05-03T15:39:15.379Z,3.23
2019-05-03T15:44:29.172Z,2.33
2019-05-03T15:49:35.580Z,1.83
2019-05-03T15:54:39.564Z,1.93
2019-05-03T15:59:44.493Z,3.87
2019-05-03T16:04:49.092Z,4.13
2019-05-03T16:09:55.094Z,2.00
2019-05-03T16:15:00.203Z,1.47
2019-05-03T16:20:05.127Z,1.73
2019-05-03T16:25:09.829Z,3.17
2019-05-03T16:30:28.602Z,3.33
2019-05-03T16:35:32.723Z,2.53
2019-05-03T16:40:39.498Z,2.57
2019-05-03T16:45:44.447Z,3.23
2019-05-03T16:50:49.137Z,11.33
2019-05-03T16:55:54.792Z,9.93
2019-05-03T17:01:00.429Z,2.80
2019-05-03T17:06:32.203Z,2.87
2019-05-03T17:11:36.406Z,1.97
2019-05-03T17:16:40.829Z,2.00
2019-05-03T17:21:48.617Z,4.43
2019-05-03T17:26:55.052Z,2.87
2019-05-03T17:31:59.592Z,2.43
2019-05-03T17:37:04.989Z,1.63
2019-05-03T17:42:19.960Z,2.10
2019-05-03T17:47:25.559Z,2.87
2019-05-03T17:52:47.352Z,4.40
2019-05-03T17:57:55.235Z,3.33
2019-05-03T18:02:59.395Z,3.30
2019-05-03T18:08:25.082Z,2.27
2019-05-03T18:13:28.825Z,2.63
2019-05-03T18:18:35.150Z,4.40
2019-05-03T18:23:39.232Z,2.60
2019-05-03T18:28:48.022Z,3.87
2019-05-03T18:33:49.453Z,2.70
2019-05-03T18:38:55.294Z,2.57
2019-05-03T18:44:11.180Z,2.83
2019-05-03T18:49:18.788Z,3.97
2019-05-03T18:54:24.568Z,2.90
2019-05-03T18:59:30.290Z,3.37
2019-05-03T19:04:59.941Z,3.37
2019-05-03T19:10:18.045Z,5.23
2019-05-03T19:15:22.452Z,1.73
2019-05-03T19:20:26.632Z,3.27
2019-05-03T19:25:43.351Z,3.13
2019-05-03T19:30:38.380Z,4.30
2019-05-03T19:35:44.439Z,3.60
2019-05-03T19:40:48.670Z,3.63
2019-05-03T19:45:53.000Z,2.77
2019-05-03T19:50:58.130Z,4.07
2019-05-03T19:56:02.563Z,4.17
2019-05-03T20:01:32.191Z,2.83
2019-05-03T20:06:46.483Z,3.20
2019-05-03T20:11:52.961Z,4.03
2019-05-03T20:16:57.560Z,5.03
2019-05-03T20:22:01.701Z,3.33
2019-05-03T20:27:05.882Z,4.07
2019-05-03T20:32:10.513Z,4.20
2019-05-03T20:37:15.576Z,4.03
2019-05-03T20:42:37.492Z,4.47
2019-05-03T20:47:47.189Z,3.27
2019-05-03T20:52:52.235Z,4.13
2019-05-03T20:57:59.946Z,3.90
2019-05-03T21:03:06.150Z,4.13
2019-05-03T21:08:11.165Z,3.87
2019-05-03T21:13:15.669Z,4.87
2019-05-03T21:18:41.515Z,3.67
2019-05-03T21:23:50.071Z,3.70
2019-05-03T21:28:55.393Z,3.27
2019-05-03T21:34:00.399Z,5.53
2019-05-03T21:39:06.000Z,3.73
2019-05-03T21:44:30.125Z,4.57
2019-05-03T21:49:40.587Z,4.97
2019-05-03T21:54:45.054Z,3.63
2019-05-03T21:59:49.772Z,7.83
2019-05-03T22:04:53.865Z,5.20
2019-05-03T22:09:58.758Z,4.80
2019-05-03T22:15:10.632Z,4.43
2019-05-03T22:20:24.586Z,4.07
2019-05-03T22:25:30.912Z,4.17
2019-05-03T22:30:35.285Z,4.73
2019-05-03T22:35:39.378Z,4.27
2019-05-03T22:40:44.289Z,5.83
2019-05-03T22:45:49.301Z,7.07
2019-05-03T22:50:55.422Z,8.87
2019-05-03T22:55:59.265Z,5.83
2019-05-03T23:01:03.768Z,8.40
2019-05-03T23:06:19.497Z,7.23
2019-05-03T23:11:15.260Z,6.47
2019-05-03T23:16:19.368Z,8.30
2019-05-03T23:21:25.521Z,7.37
2019-05-03T23:26:29.660Z,7.20
2019-05-03T23:31:34.423Z,7.67
2019-05-03T23:36:39.590Z,6.67
2019-05-03T23:41:43.961Z,7.67
2019-05-03T23:46:56.254Z,8.30
2019-05-03T23:52:06.614Z,7.33
2019-05-03T23:57:10.963Z,8.50
